createdAt,value
2022-09-05T00:02:41.870Z,101039.94
2022-09-05T00:05:18.488Z,101045.41
2022-09-05T00:08:12.528Z,101047.78
2022-09-05T00:11:42.025Z,101048.47
2022-09-05T00:13:53.423Z,101045.16
2022-09-05T00:16:30.257Z,101040.81
2022-09-05T00:22:51.291Z,101042.41
2022-09-05T00:24:33.159Z,101041.53
2022-09-05T00:25:41.467Z,101048.38
2022-09-05T00:28:42.705Z,101045.56
2022-09-05T00:31:55.020Z,101050.63
2022-09-05T00:34:47.466Z,101057.09
2022-09-05T00:37:42.700Z,101051.63
2022-09-05T00:40:21.378Z,101054.38
2022-09-05T00:42:53.832Z,101053.59
2022-09-05T00:45:43.633Z,101051.34
2022-09-05T00:48:21.348Z,101046.13
2022-09-05T00:51:00.296Z,101054.91
2022-09-05T00:53:39.356Z,101053.28
2022-09-05T00:56:37.020Z,101056.47
2022-09-05T00:59:58.472Z,101052.06
2022-09-05T01:02:40.227Z,101063.41
2022-09-05T01:05:38.418Z,101060.94
2022-09-05T01:08:29.423Z,101070.19
2022-09-05T01:11:01.994Z,101061.22
2022-09-05T01:13:54.142Z,101061.97
2022-09-05T01:16:31.409Z,101061.19
2022-09-05T01:19:16.104Z,101065.88
2022-09-05T01:22:04.602Z,101064.19
2022-09-05T01:24:53.097Z,101063.69
2022-09-05T01:28:06.782Z,101068.03
2022-09-05T01:30:37.740Z,101057.09
2022-09-05T01:33:19.978Z,101066.16
2022-09-05T01:36:03.869Z,101056.66
2022-09-05T01:39:13.230Z,101063.25
2022-09-05T01:41:57.973Z,101063.72
2022-09-05T01:44:41.281Z,101062.91
2022-09-05T01:47:29.342Z,101065.72
2022-09-05T01:50:17.128Z,101066.00
2022-09-05T01:53:26.030Z,101060.72
2022-09-05T01:56:24.569Z,101061.03
2022-09-05T01:59:10.146Z,101060.97
2022-09-05T02:01:45.749Z,101060.00
2022-09-05T02:04:54.525Z,101056.38
2022-09-05T02:07:31.114Z,101062.22
2022-09-05T02:10:25.703Z,101060.00
2022-09-05T02:13:29.874Z,101054.50
2022-09-05T02:16:23.645Z,101073.13
2022-09-05T02:19:15.000Z,101058.06
2022-09-05T02:22:07.705Z,101071.03
2022-09-05T02:24:36.736Z,101054.69
2022-09-05T02:28:03.595Z,101062.25
2022-09-05T02:30:17.003Z,101060.69
2022-09-05T02:33:09.303Z,101057.38
2022-09-05T02:35:35.779Z,101055.31
2022-09-05T02:40:29.849Z,101064.06
2022-09-05T02:45:09.270Z,101059.19
2022-09-05T02:45:21.829Z,101058.03
2022-09-05T02:47:25.707Z,101058.00
2022-09-05T02:53:15.914Z,101048.72
2022-09-05T02:57:29.970Z,101050.41
2022-09-05T02:57:40.446Z,101043.25
2022-09-05T02:59:50.409Z,101048.19
2022-09-05T03:02:47.734Z,101040.03
2022-09-05T03:05:52.179Z,101038.06
2022-09-05T03:08:18.628Z,101036.75
2022-09-05T03:11:08.689Z,101041.78
2022-09-05T03:14:21.171Z,101039.97
2022-09-05T03:17:03.074Z,101034.56
2022-09-05T03:20:06.843Z,101032.91
2022-09-05T03:23:10.825Z,101032.31
2022-09-05T03:25:52.332Z,101032.91
2022-09-05T03:29:11.520Z,101043.84
2022-09-05T03:31:50.084Z,101042.28
2022-09-05T03:34:22.688Z,101048.84
2022-09-05T03:37:26.835Z,101041.13
2022-09-05T03:40:18.846Z,101044.97
2022-09-05T03:43:37.904Z,101040.84
2022-09-05T03:46:26.047Z,101054.28
2022-09-05T03:49:27.218Z,101051.00
2022-09-05T03:57:08.398Z,101049.38
2022-09-05T03:57:11.363Z,101059.56
2022-09-05T03:58:41.995Z,101061.41
2022-09-05T04:04:31.779Z,101061.16
2022-09-05T04:08:08.621Z,101063.63
2022-09-05T04:08:34.269Z,101059.25
2022-09-05T04:10:57.580Z,101058.59
2022-09-05T04:13:29.493Z,101071.03
2022-09-05T04:16:15.845Z,101064.44
2022-09-05T04:19:01.421Z,101069.91
2022-09-05T04:21:32.550Z,101068.06
2022-09-05T04:24:14.382Z,101069.13
2022-09-05T04:26:53.446Z,101069.72
2022-09-05T04:29:49.376Z,101066.38
2022-09-05T04:32:36.561Z,101074.59
2022-09-05T04:35:21.970Z,101070.25
2022-09-05T04:38:16.461Z,101074.06
2022-09-05T04:40:48.745Z,101070.78
2022-09-05T04:43:18.310Z,101082.84
2022-09-05T04:46:01.827Z,101077.91
2022-09-05T04:48:36.549Z,101087.75
2022-09-05T04:51:08.103Z,101087.50
2022-09-05T04:53:59.540Z,101086.91
2022-09-05T04:56:33.050Z,101097.06
2022-09-05T05:01:37.919Z,101095.97
2022-09-05T05:06:00.673Z,101091.59
2022-09-05T05:06:19.100Z,101102.56
2022-09-05T05:07:49.959Z,101093.25
2022-09-05T05:11:06.179Z,101098.44
2022-09-05T05:18:01.745Z,101109.97
2022-09-05T05:18:12.356Z,101111.84
2022-09-05T05:19:27.810Z,101111.34
2022-09-05T05:21:58.178Z,101112.16
2022-09-05T05:24:31.071Z,101118.47
2022-09-05T05:27:07.470Z,101121.72
2022-09-05T05:29:56.782Z,101118.47
2022-09-05T05:32:44.979Z,101119.00
2022-09-05T05:35:18.711Z,101123.66
2022-09-05T05:37:47.575Z,101124.50
2022-09-05T05:40:21.807Z,101125.03
2022-09-05T05:42:48.783Z,101122.88
2022-09-05T05:45:28.162Z,101128.34
2022-09-05T05:48:03.774Z,101125.03
2022-09-05T05:50:42.604Z,101125.59
2022-09-05T05:53:28.960Z,101125.06
2022-09-05T05:56:16.583Z,101129.44
2022-09-05T05:59:13.919Z,101138.16
2022-09-05T06:01:55.848Z,101142.00
2022-09-05T06:04:47.045Z,101134.63
2022-09-05T06:10:02.420Z,101130.50
2022-09-05T06:15:03.669Z,101133.81
2022-09-05T06:15:05.773Z,101132.44
2022-09-05T06:17:55.447Z,101132.72
2022-09-05T06:22:05.953Z,101139.56
2022-09-05T06:23:50.643Z,101135.97
2022-09-05T06:26:32.156Z,101146.38
2022-09-05T06:29:04.777Z,101148.03
2022-09-05T06:31:57.539Z,101137.09
2022-09-05T06:35:01.685Z,101134.38
2022-09-05T06:38:09.561Z,101151.84
2022-09-05T06:40:50.954Z,101142.00
2022-09-05T06:43:35.034Z,101146.63
2022-09-05T06:46:32.206Z,101146.13
2022-09-05T06:49:31.321Z,101147.47
2022-09-05T06:52:28.658Z,101149.66
2022-09-05T06:55:08.902Z,101136.81
2022-09-05T06:57:53.583Z,101157.88
2022-09-05T07:00:23.788Z,101148.00
2022-09-05T07:03:20.540Z,101146.38
2022-09-05T07:06:08.297Z,101152.69
2022-09-05T07:09:08.479Z,101142.25
2022-09-05T07:11:43.988Z,101146.94
2022-09-05T07:14:30.448Z,101147.50
2022-09-05T07:17:16.996Z,101154.03
2022-09-05T07:19:56.126Z,101156.50
2022-09-05T07:22:54.637Z,101150.22
2022-09-05T07:25:31.561Z,101154.56
2022-09-05T07:28:28.950Z,101158.38
2022-09-05T07:31:04.175Z,101157.00
2022-09-05T07:33:31.957Z,101161.13
2022-09-05T07:36:08.859Z,101167.94
2022-09-05T07:38:45.587Z,101161.59
2022-09-05T07:41:26.560Z,101162.69
2022-09-05T07:43:59.192Z,101163.25
2022-09-05T07:46:31.388Z,101162.16
2022-09-05T07:49:03.168Z,101169.00
2022-09-05T07:56:47.397Z,101163.22
2022-09-05T07:56:59.810Z,101158.31
2022-09-05T07:57:50.970Z,101162.34
2022-09-05T08:00:28.992Z,101167.84
2022-09-05T08:03:01.166Z,101170.81
2022-09-05T08:05:36.024Z,101165.59
2022-09-05T08:08:09.282Z,101173.50
2022-09-05T08:11:25.007Z,101169.84
2022-09-05T08:13:48.572Z,101161.34
2022-09-05T08:16:22.665Z,101159.13
2022-09-05T08:18:56.598Z,101166.75
2022-09-05T08:21:40.030Z,101169.78
2022-09-05T08:24:41.554Z,101167.22
2022-09-05T08:27:17.045Z,101174.34
2022-09-05T08:30:26.920Z,101172.66
2022-09-05T08:32:57.528Z,101175.34
2022-09-05T08:36:01.275Z,101172.59
2022-09-05T08:38:38.767Z,101170.91
2022-09-05T08:41:16.404Z,101162.59
2022-09-05T08:46:35.891Z,101159.22
2022-09-05T08:46:50.080Z,101158.06
2022-09-05T08:49:54.062Z,101156.91
2022-09-05T08:52:33.986Z,101156.91
2022-09-05T08:55:18.594Z,101153.03
2022-09-05T08:58:06.960Z,101149.88
2022-09-05T09:00:42.295Z,101145.25
2022-09-05T09:03:22.558Z,101152.81
2022-09-05T09:06:14.216Z,101151.59
2022-09-05T09:09:15.772Z,101142.00
2022-09-05T09:11:53.214Z,101138.94
2022-09-05T09:14:31.544Z,101135.25
2022-09-05T09:17:02.338Z,101125.84
2022-09-05T09:19:46.482Z,101122.00
2022-09-05T09:22:33.543Z,101124.38
2022-09-05T09:25:33.148Z,101118.25
2022-09-05T09:28:47.246Z,101128.53
2022-09-05T09:31:22.188Z,101125.50
2022-09-05T09:34:27.123Z,101122.00
2022-09-05T09:37:51.697Z,101121.84
2022-09-05T09:40:27.178Z,101120.31
2022-09-05T09:43:07.258Z,101115.56
2022-09-05T09:45:45.939Z,101120.72
2022-09-05T09:48:35.183Z,101119.22
2022-09-05T09:51:26.987Z,101110.16
2022-09-05T09:54:07.265Z,101115.91
2022-09-05T09:56:55.427Z,101116.09
2022-09-05T09:59:54.300Z,101105.13
2022-09-05T10:05:24.042Z,101103.00
2022-09-05T10:10:49.403Z,101103.00
2022-09-05T10:10:49.406Z,101093.59
2022-09-05T10:12:40.209Z,101093.31
2022-09-05T10:15:32.290Z,101082.84
2022-09-05T10:18:27.004Z,101080.81
2022-09-05T10:21:28.549Z,101075.94
2022-09-05T10:24:26.318Z,101082.34
2022-09-05T10:27:19.212Z,101083.28
2022-09-05T10:30:03.402Z,101073.50
2022-09-05T10:35:08.137Z,101069.91
2022-09-05T10:35:40.663Z,101068.94
2022-09-05T10:38:10.948Z,101078.38
2022-09-05T10:41:20.005Z,101073.16
2022-09-05T10:43:33.285Z,101066.34
2022-09-05T10:46:39.800Z,101064.06
2022-09-05T10:49:09.147Z,101058.34
2022-09-05T10:51:42.299Z,101058.53
2022-09-05T10:54:41.257Z,101050.06
2022-09-05T10:57:17.236Z,101056.53
2022-09-05T11:02:23.800Z,101049.81
2022-09-05T11:02:47.431Z,101044.09
2022-09-05T11:05:17.877Z,101035.88
2022-09-05T11:08:11.620Z,101034.31
2022-09-05T11:10:56.822Z,101030.19
2022-09-05T11:13:46.458Z,101033.66
2022-09-05T11:16:28.448Z,101038.34
2022-09-05T11:19:03.724Z,101029.22
2022-09-05T11:21:33.163Z,101016.97
2022-09-05T11:24:42.051Z,101025.66
2022-09-05T11:27:41.090Z,101020.25
2022-09-05T11:30:28.414Z,101023.19
2022-09-05T11:39:40.999Z,101025.44
2022-09-05T11:39:54.633Z,101021.19
2022-09-05T11:40:07.644Z,101010.09
2022-09-05T11:42:06.237Z,101006.97
2022-09-05T11:44:56.973Z,101010.75
2022-09-05T11:47:57.264Z,101007.69
2022-09-05T11:50:41.925Z,101011.97
2022-09-05T11:53:37.572Z,100998.41
2022-09-05T11:56:25.488Z,100997.25
2022-09-05T11:58:57.732Z,100997.69
2022-09-05T12:01:44.321Z,101000.06
2022-09-05T12:05:48.923Z,100983.75
2022-09-05T12:08:21.321Z,100988.75
2022-09-05T12:11:17.810Z,100985.69
2022-09-05T12:14:21.054Z,100989.59
2022-09-05T12:17:10.024Z,100977.44
2022-09-05T12:19:44.689Z,100976.25
2022-09-05T12:22:33.228Z,100976.94
2022-09-05T12:27:37.106Z,100963.22
2022-09-05T12:29:25.908Z,100961.56
2022-09-05T12:32:44.545Z,100967.41
2022-09-05T12:40:43.206Z,100968.78
2022-09-05T12:41:31.952Z,100957.25
2022-09-05T12:42:08.587Z,100959.69
2022-09-05T12:42:48.341Z,100950.25
2022-09-05T12:45:47.710Z,100949.91
2022-09-05T12:48:38.698Z,100943.88
2022-09-05T12:51:47.083Z,100938.13
2022-09-05T12:54:33.505Z,100949.97
2022-09-05T12:59:40.184Z,100943.06
2022-09-05T13:03:05.122Z,100941.66
2022-09-05T13:03:29.244Z,100942.38
2022-09-05T13:05:54.410Z,100937.84
2022-09-05T13:08:24.701Z,100936.31
2022-09-05T13:14:50.040Z,100947.72
2022-09-05T13:14:56.696Z,100947.44
2022-09-05T13:16:46.236Z,100936.28
2022-09-05T13:19:25.041Z,100940.25
2022-09-05T13:21:55.645Z,100931.19
2022-09-05T13:24:32.365Z,100928.75
2022-09-05T13:27:08.697Z,100920.75
2022-09-05T13:32:58.817Z,100922.38
2022-09-05T13:38:08.371Z,100923.59
2022-09-05T13:38:19.618Z,100921.66
2022-09-05T13:39:03.017Z,100910.03
2022-09-05T13:41:37.220Z,100908.06
2022-09-05T13:44:25.659Z,100904.06
2022-09-05T13:47:16.376Z,100908.88
2022-09-05T13:50:08.794Z,100908.06
2022-09-05T13:53:02.333Z,100893.09
2022-09-05T13:55:44.249Z,100896.16
2022-09-05T13:58:45.442Z,100887.53
2022-09-05T14:02:25.942Z,100889.16
2022-09-05T14:05:17.777Z,100887.59
2022-09-05T14:07:51.840Z,100885.91
2022-09-05T14:10:39.515Z,100876.50
2022-09-05T14:13:15.221Z,100880.31
2022-09-05T14:15:52.058Z,100879.34
2022-09-05T14:18:30.275Z,100879.91
2022-09-05T14:21:17.398Z,100880.03
2022-09-05T14:23:54.037Z,100884.22
2022-09-05T14:26:29.214Z,100871.34
2022-09-05T14:29:15.680Z,100872.59
2022-09-05T14:37:34.411Z,100861.44
2022-09-05T14:37:53.023Z,100870.03
2022-09-05T14:38:16.058Z,100865.19
2022-09-05T14:41:20.707Z,100866.09
2022-09-05T14:44:19.439Z,100870.03
2022-09-05T14:47:08.536Z,100862.84
2022-09-05T14:49:52.448Z,100858.00
2022-09-05T14:52:24.840Z,100864.88
2022-09-05T15:02:38.977Z,100862.03
2022-09-05T15:02:49.860Z,100859.53
2022-09-05T15:06:33.082Z,100857.22
2022-09-05T15:11:25.310Z,100860.00
2022-09-05T15:12:27.883Z,100865.41
2022-09-05T15:14:37.084Z,100861.00
2022-09-05T15:17:05.943Z,100857.75
2022-09-05T15:20:05.780Z,100852.44
2022-09-05T15:22:37.254Z,100856.97
2022-09-05T15:25:24.161Z,100852.44
2022-09-05T15:27:51.267Z,100848.31
2022-09-05T15:30:35.553Z,100845.28
2022-09-05T15:33:25.441Z,100850.59
2022-09-05T15:35:52.671Z,100847.56
2022-09-05T15:38:23.923Z,100846.78
2022-09-05T15:41:25.733Z,100849.28
2022-09-05T15:44:09.881Z,100857.72
2022-09-05T15:46:59.700Z,100853.50
2022-09-05T15:49:35.308Z,100849.16
2022-09-05T15:52:07.934Z,100843.63
2022-09-05T15:54:39.441Z,100841.25
2022-09-05T15:57:17.633Z,100854.50
2022-09-05T15:59:48.926Z,100839.03
2022-09-05T16:02:25.864Z,100841.03
2022-09-05T16:10:34.677Z,100840.47
2022-09-05T16:10:39.977Z,100836.56
2022-09-05T16:11:18.684Z,100831.28
2022-09-05T16:13:53.419Z,100820.41
2022-09-05T16:23:16.742Z,100825.72
2022-09-05T16:23:20.434Z,100823.16
2022-09-05T16:23:28.979Z,100820.75
2022-09-05T16:25:24.082Z,100824.22
2022-09-05T16:27:51.029Z,100827.56
2022-09-05T16:30:35.589Z,100829.19
2022-09-05T16:33:17.562Z,100842.13
2022-09-05T16:35:57.372Z,100835.75
2022-09-05T16:38:48.658Z,100851.91
2022-09-05T16:41:41.226Z,100844.50
2022-09-05T16:44:40.153Z,100847.06
2022-09-05T16:47:23.321Z,100840.97
2022-09-05T16:49:54.523Z,100839.28
2022-09-05T16:52:35.763Z,100843.56
2022-09-05T16:55:18.397Z,100841.47
2022-09-05T16:58:14.533Z,100836.59
2022-09-05T17:00:50.609Z,100832.84
2022-09-05T17:03:32.458Z,100829.28
2022-09-05T17:06:26.194Z,100824.72
2022-09-05T17:09:12.269Z,100829.16
2022-09-05T17:11:45.853Z,100832.88
2022-09-05T17:14:33.624Z,100834.03
2022-09-05T17:17:20.149Z,100830.22
2022-09-05T17:20:07.205Z,100836.19
2022-09-05T17:28:43.091Z,100830.16
2022-09-05T17:29:30.407Z,100837.50
2022-09-05T17:29:30.888Z,100829.63
2022-09-05T17:31:59.790Z,100826.59
2022-09-05T17:35:17.779Z,100827.47
2022-09-05T17:38:22.211Z,100832.06
2022-09-05T17:41:23.864Z,100817.16
2022-09-05T17:44:05.812Z,100824.09
2022-09-05T17:46:35.201Z,100827.22
2022-09-05T17:49:19.528Z,100829.38
2022-09-05T17:52:06.596Z,100830.16
2022-09-05T17:54:33.698Z,100836.94
2022-09-05T17:57:28.537Z,100835.63
2022-09-05T17:59:56.520Z,100838.88
2022-09-05T18:02:24.017Z,100841.50
2022-09-05T18:04:52.470Z,100843.75
2022-09-05T18:07:35.242Z,100848.16
2022-09-05T18:10:12.793Z,100846.00
2022-09-05T18:15:36.135Z,100849.38
2022-09-05T18:18:05.908Z,100856.22
2022-09-05T18:20:47.325Z,100852.16
2022-09-05T18:23:39.097Z,100857.16
2022-09-05T18:26:24.490Z,100862.00
2022-09-05T18:29:57.254Z,100857.16
2022-09-05T18:32:11.638Z,100866.25
2022-09-05T18:34:38.330Z,100856.31
2022-09-05T18:37:35.965Z,100865.97
2022-09-05T18:40:08.645Z,100867.50
2022-09-05T18:42:52.618Z,100870.69
2022-09-05T18:45:28.440Z,100867.22
2022-09-05T18:48:02.861Z,100867.66
2022-09-05T18:50:34.244Z,100879.13
2022-09-05T18:53:10.460Z,100876.50
2022-09-05T18:56:10.185Z,100879.44
2022-09-05T18:59:09.571Z,100887.72
2022-09-05T19:01:48.798Z,100890.84
2022-09-05T19:04:40.904Z,100888.25
2022-09-05T19:07:22.394Z,100887.25
2022-09-05T19:09:59.125Z,100890.13
2022-09-05T19:12:33.544Z,100881.41
2022-09-05T19:15:18.090Z,100889.84
2022-09-05T19:18:22.814Z,100895.97
2022-09-05T19:21:17.822Z,100890.56
2022-09-05T19:23:55.535Z,100886.69
2022-09-05T19:26:23.503Z,100887.53
2022-09-05T19:32:59.820Z,100877.97
2022-09-05T19:37:05.140Z,100887.44
2022-09-05T19:37:08.360Z,100882.06
2022-09-05T19:37:26.124Z,100880.03
2022-09-05T19:46:50.694Z,100887.19
2022-09-05T19:47:27.259Z,100879.13
2022-09-05T19:47:35.724Z,100877.31
2022-09-05T19:50:54.182Z,100880.72
2022-09-05T19:53:21.242Z,100875.38
2022-09-05T19:55:48.405Z,100868.84
2022-09-05T19:58:21.261Z,100872.34
2022-09-05T20:01:01.266Z,100859.06
2022-09-05T20:03:35.500Z,100862.13
2022-09-05T20:06:32.186Z,100864.47
2022-09-05T20:09:21.434Z,100861.72
2022-09-05T20:11:49.714Z,100873.34
2022-09-05T20:14:30.384Z,100870.81
2022-09-05T20:17:01.443Z,100864.88
2022-09-05T20:19:29.910Z,100861.13
2022-09-05T20:22:46.701Z,100855.59
2022-09-05T20:24:52.938Z,100859.09
2022-09-05T20:27:27.192Z,100858.88
2022-09-05T20:30:02.520Z,100862.34
2022-09-05T20:32:40.511Z,100861.34
2022-09-05T20:38:09.079Z,100869.78
2022-09-05T20:43:15.055Z,100867.13
2022-09-05T20:43:23.232Z,100865.59
2022-09-05T20:43:52.760Z,100860.81
2022-09-05T20:49:43.522Z,100868.25
2022-09-05T20:54:20.747Z,100868.91
2022-09-05T20:54:28.653Z,100870.69
2022-09-05T20:55:42.061Z,100866.34
2022-09-05T20:58:15.251Z,100860.25
2022-09-05T21:01:21.760Z,100865.53
2022-09-05T21:03:45.534Z,100862.06
2022-09-05T21:06:36.473Z,100855.78
2022-09-05T21:09:23.839Z,100858.94
2022-09-05T21:11:52.760Z,100868.56
2022-09-05T21:14:21.657Z,100848.50
2022-09-05T21:16:57.508Z,100858.97
2022-09-05T21:19:31.445Z,100854.22
2022-09-05T21:22:25.008Z,100851.56
2022-09-05T21:25:15.349Z,100852.19
2022-09-05T21:27:54.196Z,100852.28
2022-09-05T21:30:30.808Z,100865.09
2022-09-05T21:33:18.529Z,100851.25
2022-09-05T21:35:48.871Z,100846.56
2022-09-05T21:38:32.395Z,100853.78
2022-09-05T21:41:03.649Z,100849.78
2022-09-05T21:47:44.820Z,100843.34
2022-09-05T21:47:48.112Z,100846.41
2022-09-05T21:49:07.748Z,100847.81
2022-09-05T21:51:34.925Z,100850.38
2022-09-05T21:57:16.875Z,100850.31
2022-09-05T21:59:29.385Z,100849.06
2022-09-05T21:59:55.559Z,100861.75
2022-09-05T22:02:23.714Z,100853.25
2022-09-05T22:05:03.116Z,100851.94
2022-09-05T22:07:34.532Z,100864.03
2022-09-05T22:10:06.231Z,100856.81
2022-09-05T22:12:38.803Z,100857.00
2022-09-05T22:15:27.168Z,100857.00
2022-09-05T22:18:07.677Z,100856.47
2022-09-05T22:20:44.826Z,100851.50
2022-09-05T22:23:11.923Z,100850.44
2022-09-05T22:25:39.307Z,100849.63
2022-09-05T22:28:12.791Z,100860.84
2022-09-05T22:30:39.763Z,100852.09
2022-09-05T22:33:07.341Z,100845.47
2022-09-05T22:35:35.784Z,100846.00
2022-09-05T22:38:10.881Z,100837.78
2022-09-05T22:40:39.677Z,100840.72
2022-09-05T22:44:59.283Z,100837.09
2022-09-05T22:47:29.716Z,100826.09
2022-09-05T22:49:56.683Z,100819.56
2022-09-05T22:52:23.226Z,100825.06
2022-09-05T22:54:49.746Z,100819.88
2022-09-05T22:57:16.246Z,100825.66
2022-09-05T22:59:42.749Z,100814.66
2022-09-05T23:02:09.238Z,100815.81
2022-09-05T23:04:35.808Z,100816.91
2022-09-05T23:07:03.064Z,100809.25
2022-09-05T23:09:30.283Z,100804.06
2022-09-05T23:11:56.758Z,100808.22
2022-09-05T23:14:23.290Z,100813.22
2022-09-05T23:16:49.858Z,100819.31
2022-09-05T23:19:16.398Z,100815.22
2022-09-05T23:21:42.942Z,100808.97
2022-09-05T23:24:09.474Z,100806.84
2022-09-05T23:26:35.970Z,100800.81
2022-09-05T23:29:02.570Z,100808.88
2022-09-05T23:31:29.174Z,100806.41
2022-09-05T23:33:58.053Z,100802.13
2022-09-05T23:36:24.627Z,100795.59
2022-09-05T23:38:51.264Z,100795.06
2022-09-05T23:41:17.832Z,100795.66
2022-09-05T23:43:44.379Z,100793.53
2022-09-05T23:46:11.389Z,100793.28
2022-09-05T23:48:38.067Z,100787.53
2022-09-05T23:51:09.891Z,100776.03
2022-09-05T23:53:37.137Z,100787.13
2022-09-05T23:56:06.764Z,100780.59
2022-09-05T23:58:34.459Z,100779.56
